sensor_id;sensor_type;location;lat;lon;timestamp;pressure;altitude;pressure_sealevel;temperature;humidity
63115;BME280;49208;50.874;6.466;2023-05-01T06:02:40;100333.13;;;11.17;89.84
63115;BME280;49208;50.874;6.466;2023-05-01T06:05:06;100338.13;;;11.24;89.46
63115;BME280;49208;50.874;6.466;2023-05-01T06:07:31;100344.03;;;11.32;87.75
63115;BME280;49208;50.874;6.466;2023-05-01T06:09:57;100336.72;;;11.38;88.51
63115;BME280;49208;50.874;6.466;2023-05-01T06:12:29;100332.00;;;11.44;88.24
63115;BME280;49208;50.874;6.466;2023-05-01T06:14:55;100331.88;;;11.47;85.58
63115;BME280;49208;50.874;6.466;2023-05-01T06:17:21;100328.94;;;11.53;84.89
63115;BME280;49208;50.874;6.466;2023-05-01T06:19:46;100327.78;;;11.61;84.17
63115;BME280;49208;50.874;6.466;2023-05-01T06:22:12;100326.56;;;11.68;83.51
63115;BME280;49208;50.874;6.466;2023-05-01T06:24:37;100336.66;;;11.82;83.57
63115;BME280;49208;50.874;6.466;2023-05-01T06:27:04;100325.31;;;11.99;82.23
63115;BME280;49208;50.874;6.466;2023-05-01T06:29:30;100329.03;;;12.15;82.19
63115;BME280;49208;50.874;6.466;2023-05-01T06:31:55;100324.81;;;12.30;81.06
63115;BME280;49208;50.874;6.466;2023-05-01T06:34:20;100322.56;;;12.41;82.31
63115;BME280;49208;50.874;6.466;2023-05-01T06:36:46;100319.38;;;12.52;82.07
63115;BME280;49208;50.874;6.466;2023-05-01T06:39:11;100318.25;;;12.58;81.55
63115;BME280;49208;50.874;6.466;2023-05-01T06:41:37;100319.97;;;12.59;82.27
63115;BME280;49208;50.874;6.466;2023-05-01T06:44:03;100318.94;;;12.61;82.61
63115;BME280;49208;50.874;6.466;2023-05-01T06:46:29;100325.03;;;12.65;81.75
63115;BME280;49208;50.874;6.466;2023-05-01T06:48:54;100319.69;;;12.65;82.10
63115;BME280;49208;50.874;6.466;2023-05-01T06:51:19;100325.97;;;12.64;82.36
63115;BME280;49208;50.874;6.466;2023-05-01T06:53:45;100314.28;;;12.66;82.68
63115;BME280;49208;50.874;6.466;2023-05-01T06:56:10;100322.94;;;12.71;82.20
63115;BME280;49208;50.874;6.466;2023-05-01T06:58:35;100322.59;;;12.79;82.22
63115;BME280;49208;50.874;6.466;2023-05-01T07:01:01;100316.72;;;12.90;83.20
63115;BME280;49208;50.874;6.466;2023-05-01T07:03:26;100313.41;;;13.04;83.17
63115;BME280;49208;50.874;6.466;2023-05-01T07:05:53;100324.59;;;13.12;81.88
63115;BME280;49208;50.874;6.466;2023-05-01T07:08:19;100318.72;;;13.23;79.61
63115;BME280;49208;50.874;6.466;2023-05-01T07:10:44;100320.69;;;13.19;79.92
63115;BME280;49208;50.874;6.466;2023-05-01T07:13:10;100316.78;;;13.26;79.67
63115;BME280;49208;50.874;6.466;2023-05-01T07:15:35;100317.56;;;13.28;79.67
63115;BME280;49208;50.874;6.466;2023-05-01T07:18:01;100321.75;;;13.34;79.16
63115;BME280;49208;50.874;6.466;2023-05-01T07:20:32;100314.88;;;13.47;78.18
63115;BME280;49208;50.874;6.466;2023-05-01T07:22:59;100317.44;;;13.68;78.02
63115;BME280;49208;50.874;6.466;2023-05-01T07:25:24;100313.88;;;13.85;77.92
63115;BME280;49208;50.874;6.466;2023-05-01T07:27:49;100311.66;;;14.10;77.82
63115;BME280;49208;50.874;6.466;2023-05-01T07:30:15;100313.22;;;14.32;76.01
63115;BME280;49208;50.874;6.466;2023-05-01T07:32:40;100308.53;;;14.53;74.08
63115;BME280;49208;50.874;6.466;2023-05-01T07:35:06;100311.28;;;14.85;73.20
63115;BME280;49208;50.874;6.466;2023-05-01T07:37:32;100313.78;;;15.20;73.58
63115;BME280;49208;50.874;6.466;2023-05-01T07:39:57;100311.06;;;15.51;71.78
63115;BME280;49208;50.874;6.466;2023-05-01T07:42:22;100307.66;;;15.80;71.81
63115;BME280;49208;50.874;6.466;2023-05-01T07:44:49;100307.72;;;16.08;69.03
63115;BME280;49208;50.874;6.466;2023-05-01T07:47:14;100306.31;;;16.31;69.60
63115;BME280;49208;50.874;6.466;2023-05-01T07:49:40;100312.34;;;16.49;66.43
63115;BME280;49208;50.874;6.466;2023-05-01T07:52:05;100304.50;;;16.61;64.29
63115;BME280;49208;50.874;6.466;2023-05-01T07:54:35;100306.03;;;16.65;62.79
63115;BME280;49208;50.874;6.466;2023-05-01T07:57:00;100311.13;;;16.84;62.67
63115;BME280;49208;50.874;6.466;2023-05-01T07:59:29;100318.13;;;17.28;62.05
63115;BME280;49208;50.874;6.466;2023-05-01T08:01:54;100316.56;;;17.65;60.01
63115;BME280;49208;50.874;6.466;2023-05-01T08:04:20;100308.03;;;17.98;57.01
63115;BME280;49208;50.874;6.466;2023-05-01T08:06:49;100312.50;;;18.12;58.62
63115;BME280;49208;50.874;6.466;2023-05-01T08:09:14;100321.00;;;18.19;60.42
63115;BME280;49208;50.874;6.466;2023-05-01T08:11:39;100316.28;;;18.35;60.42
63115;BME280;49208;50.874;6.466;2023-05-01T08:14:05;100327.28;;;18.45;58.01
63115;BME280;49208;50.874;6.466;2023-05-01T08:16:30;100323.50;;;18.48;57.39
63115;BME280;49208;50.874;6.466;2023-05-01T08:18:55;100320.88;;;18.59;56.36
63115;BME280;49208;50.874;6.466;2023-05-01T08:21:21;100317.47;;;18.83;58.41
63115;BME280;49208;50.874;6.466;2023-05-01T08:23:46;100313.44;;;19.01;58.32
63115;BME280;49208;50.874;6.466;2023-05-01T08:26:11;100313.94;;;19.06;57.52
63115;BME280;49208;50.874;6.466;2023-05-01T08:28:37;100316.59;;;19.19;58.07
63115;BME280;49208;50.874;6.466;2023-05-01T08:31:03;100316.19;;;19.12;56.83
63115;BME280;49208;50.874;6.466;2023-05-01T08:33:28;100314.69;;;19.08;56.26
63115;BME280;49208;50.874;6.466;2023-05-01T08:35:53;100318.88;;;19.12;56.12
63115;BME280;49208;50.874;6.466;2023-05-01T08:38:19;100316.03;;;18.90;53.88
63115;BME280;49208;50.874;6.466;2023-05-01T08:40:51;100319.91;;;18.73;55.27
63115;BME280;49208;50.874;6.466;2023-05-01T08:43:17;100321.00;;;18.70;58.52
63115;BME280;49208;50.874;6.466;2023-05-01T08:45:46;100310.56;;;18.78;57.00
63115;BME280;49208;50.874;6.466;2023-05-01T08:48:12;100309.47;;;18.81;59.55
63115;BME280;49208;50.874;6.466;2023-05-01T08:50:44;100310.28;;;18.94;61.53
63115;BME280;49208;50.874;6.466;2023-05-01T08:53:10;100311.53;;;19.14;61.03
63115;BME280;49208;50.874;6.466;2023-05-01T08:55:37;100311.56;;;19.38;59.07
63115;BME280;49208;50.874;6.466;2023-05-01T08:58:06;100313.41;;;19.62;59.34
63115;BME280;49208;50.874;6.466;2023-05-01T09:00:34;100322.41;;;19.98;56.98
63115;BME280;49208;50.874;6.466;2023-05-01T09:03:03;100309.03;;;20.08;52.01
63115;BME280;49208;50.874;6.466;2023-05-01T09:05:31;100312.13;;;20.14;50.40
63115;BME280;49208;50.874;6.466;2023-05-01T09:07:57;100309.31;;;20.16;49.01
63115;BME280;49208;50.874;6.466;2023-05-01T09:10:23;100309.19;;;20.17;49.54
63115;BME280;49208;50.874;6.466;2023-05-01T09:12:54;100313.72;;;20.17;49.92
63115;BME280;49208;50.874;6.466;2023-05-01T09:15:22;100310.94;;;20.30;48.92
63115;BME280;49208;50.874;6.466;2023-05-01T09:17:48;100300.50;;;20.48;47.93
63115;BME280;49208;50.874;6.466;2023-05-01T09:20:16;100304.31;;;20.56;49.99
63115;BME280;49208;50.874;6.466;2023-05-01T09:22:42;100303.00;;;20.73;46.99
63115;BME280;49208;50.874;6.466;2023-05-01T09:25:08;100301.38;;;20.71;47.35
63115;BME280;49208;50.874;6.466;2023-05-01T09:27:36;100308.28;;;20.75;50.64
63115;BME280;49208;50.874;6.466;2023-05-01T09:30:01;100301.63;;;20.79;48.71
63115;BME280;49208;50.874;6.466;2023-05-01T09:32:27;100300.16;;;20.86;50.00
63115;BME280;49208;50.874;6.466;2023-05-01T09:34:55;100302.88;;;20.86;48.73
63115;BME280;49208;50.874;6.466;2023-05-01T09:37:31;100303.25;;;20.82;49.12
63115;BME280;49208;50.874;6.466;2023-05-01T09:42:30;100300.53;;;20.70;51.30
63115;BME280;49208;50.874;6.466;2023-05-01T09:44:59;100307.44;;;20.63;51.24
63115;BME280;49208;50.874;6.466;2023-05-01T09:47:28;100304.34;;;20.68;52.00
63115;BME280;49208;50.874;6.466;2023-05-01T09:49:55;100309.25;;;20.63;50.99
63115;BME280;49208;50.874;6.466;2023-05-01T09:52:23;100302.13;;;20.50;51.41
63115;BME280;49208;50.874;6.466;2023-05-01T09:54:49;100303.69;;;20.42;48.95
63115;BME280;49208;50.874;6.466;2023-05-01T09:57:15;100299.38;;;20.28;49.91
63115;BME280;49208;50.874;6.466;2023-05-01T09:59:40;100298.72;;;20.13;51.29
63115;BME280;49208;50.874;6.466;2023-05-01T10:02:05;100306.53;;;19.93;53.12
63115;BME280;49208;50.874;6.466;2023-05-01T10:04:32;100306.38;;;19.84;53.32
63115;BME280;49208;50.874;6.466;2023-05-01T10:07:12;100306.47;;;19.71;52.74
63115;BME280;49208;50.874;6.466;2023-05-01T10:09:38;100302.09;;;19.57;53.45
63115;BME280;49208;50.874;6.466;2023-05-01T10:12:04;100303.63;;;19.48;54.46
63115;BME280;49208;50.874;6.466;2023-05-01T10:14:30;100303.41;;;19.51;53.78
63115;BME280;49208;50.874;6.466;2023-05-01T10:16:58;100304.25;;;19.52;54.42
63115;BME280;49208;50.874;6.466;2023-05-01T10:19:23;100300.19;;;19.46;53.39
63115;BME280;49208;50.874;6.466;2023-05-01T10:21:49;100298.47;;;19.45;54.82
63115;BME280;49208;50.874;6.466;2023-05-01T10:24:14;100298.81;;;19.41;55.99
63115;BME280;49208;50.874;6.466;2023-05-01T10:26:41;100300.03;;;19.36;55.09
63115;BME280;49208;50.874;6.466;2023-05-01T10:29:11;100298.75;;;19.29;55.58
63115;BME280;49208;50.874;6.466;2023-05-01T10:31:36;100295.53;;;19.24;54.63
63115;BME280;49208;50.874;6.466;2023-05-01T10:34:02;100301.00;;;19.11;54.23
63115;BME280;49208;50.874;6.466;2023-05-01T10:36:45;100300.25;;;19.09;55.95
63115;BME280;49208;50.874;6.466;2023-05-01T10:39:34;100293.84;;;19.10;55.57
63115;BME280;49208;50.874;6.466;2023-05-01T10:42:03;100294.31;;;19.04;56.00
63115;BME280;49208;50.874;6.466;2023-05-01T10:44:29;100289.75;;;19.05;56.52
63115;BME280;49208;50.874;6.466;2023-05-01T10:46:55;100290.50;;;19.07;54.37
63115;BME280;49208;50.874;6.466;2023-05-01T10:49:21;100293.56;;;19.02;53.46
63115;BME280;49208;50.874;6.466;2023-05-01T10:51:56;100289.25;;;19.00;56.88
63115;BME280;49208;50.874;6.466;2023-05-01T10:54:26;100286.09;;;19.06;56.44
63115;BME280;49208;50.874;6.466;2023-05-01T10:56:53;100292.34;;;19.06;57.91
63115;BME280;49208;50.874;6.466;2023-05-01T10:59:19;100291.81;;;19.14;57.16
63115;BME280;49208;50.874;6.466;2023-05-01T11:01:46;100287.00;;;19.30;56.25
63115;BME280;49208;50.874;6.466;2023-05-01T11:09:43;100284.06;;;19.57;55.83
63115;BME280;49208;50.874;6.466;2023-05-01T11:12:10;100282.91;;;19.73;54.32
63115;BME280;49208;50.874;6.466;2023-05-01T11:20:09;100276.22;;;20.59;53.40
63115;BME280;49208;50.874;6.466;2023-05-01T11:22:36;100282.34;;;20.72;52.77
63115;BME280;49208;50.874;6.466;2023-05-01T11:25:02;100280.13;;;20.77;53.83
63115;BME280;49208;50.874;6.466;2023-05-01T11:27:29;100277.78;;;20.84;52.83
63115;BME280;49208;50.874;6.466;2023-05-01T11:29:57;100272.38;;;20.84;54.60
63115;BME280;49208;50.874;6.466;2023-05-01T11:32:25;100269.78;;;20.94;54.48
63115;BME280;49208;50.874;6.466;2023-05-01T11:34:51;100273.19;;;21.07;54.82
63115;BME280;49208;50.874;6.466;2023-05-01T11:37:17;100272.31;;;21.18;54.82
63115;BME280;49208;50.874;6.466;2023-05-01T11:39:50;100270.16;;;21.44;54.48
63115;BME280;49208;50.874;6.466;2023-05-01T11:42:19;100275.22;;;21.70;52.94
63115;BME280;49208;50.874;6.466;2023-05-01T11:45:04;100271.94;;;21.87;51.34
63115;BME280;49208;50.874;6.466;2023-05-01T11:47:33;100263.75;;;21.98;50.56
63115;BME280;49208;50.874;6.466;2023-05-01T11:49:59;100262.28;;;21.94;49.95
63115;BME280;49208;50.874;6.466;2023-05-01T11:52:27;100262.50;;;21.82;49.45
63115;BME280;49208;50.874;6.466;2023-05-01T11:54:52;100264.13;;;21.73;48.67
63115;BME280;49208;50.874;6.466;2023-05-01T11:57:18;100258.63;;;21.63;48.50
63115;BME280;49208;50.874;6.466;2023-05-01T11:59:46;100264.69;;;21.55;46.49
63115;BME280;49208;50.874;6.466;2023-05-01T12:02:19;100260.78;;;21.37;45.96
63115;BME280;49208;50.874;6.466;2023-05-01T12:04:45;100257.00;;;21.28;46.61
63115;BME280;49208;50.874;6.466;2023-05-01T12:07:23;100257.06;;;21.17;47.57
63115;BME280;49208;50.874;6.466;2023-05-01T12:09:49;100258.53;;;21.10;48.37
63115;BME280;49208;50.874;6.466;2023-05-01T12:12:15;100261.75;;;21.04;49.23
63115;BME280;49208;50.874;6.466;2023-05-01T12:14:41;100256.38;;;20.92;48.67
63115;BME280;49208;50.874;6.466;2023-05-01T12:17:07;100252.69;;;20.82;49.88
63115;BME280;49208;50.874;6.466;2023-05-01T12:19:45;100251.38;;;20.65;49.90
63115;BME280;49208;50.874;6.466;2023-05-01T12:22:11;100249.16;;;20.59;50.59
63115;BME280;49208;50.874;6.466;2023-05-01T12:24:37;100248.41;;;20.57;49.15
63115;BME280;49208;50.874;6.466;2023-05-01T12:27:02;100253.06;;;20.55;50.30
63115;BME280;49208;50.874;6.466;2023-05-01T12:29:46;100248.78;;;20.52;49.90
63115;BME280;49208;50.874;6.466;2023-05-01T12:32:13;100249.75;;;20.51;51.27
63115;BME280;49208;50.874;6.466;2023-05-01T12:34:39;100247.88;;;20.52;50.34
63115;BME280;49208;50.874;6.466;2023-05-01T12:37:04;100243.72;;;20.48;52.09
63115;BME280;49208;50.874;6.466;2023-05-01T12:39:41;100247.53;;;20.45;50.75
63115;BME280;49208;50.874;6.466;2023-05-01T12:42:14;100251.09;;;20.46;51.22
63115;BME280;49208;50.874;6.466;2023-05-01T12:44:39;100246.16;;;20.39;52.28
63115;BME280;49208;50.874;6.466;2023-05-01T12:47:06;100241.41;;;20.32;51.95
63115;BME280;49208;50.874;6.466;2023-05-01T12:49:32;100245.06;;;20.19;53.92
63115;BME280;49208;50.874;6.466;2023-05-01T12:52:01;100240.38;;;20.10;55.44
63115;BME280;49208;50.874;6.466;2023-05-01T12:54:38;100242.34;;;19.97;52.89
63115;BME280;49208;50.874;6.466;2023-05-01T12:57:09;100243.41;;;19.83;51.19
63115;BME280;49208;50.874;6.466;2023-05-01T12:59:37;100243.25;;;19.73;51.20
63115;BME280;49208;50.874;6.466;2023-05-01T13:04:29;100238.78;;;19.61;52.05
63115;BME280;49208;50.874;6.466;2023-05-01T13:06:56;100246.25;;;19.57;55.46
63115;BME280;49208;50.874;6.466;2023-05-01T13:09:23;100254.09;;;19.61;54.65
63115;BME280;49208;50.874;6.466;2023-05-01T13:12:15;100253.50;;;19.57;52.92
63115;BME280;49208;50.874;6.466;2023-05-01T13:14:41;100244.22;;;19.48;49.16
63115;BME280;49208;50.874;6.466;2023-05-01T13:17:08;100242.25;;;19.39;48.21
63115;BME280;49208;50.874;6.466;2023-05-01T13:19:34;100250.03;;;19.20;46.52
63115;BME280;49208;50.874;6.466;2023-05-01T13:22:00;100248.03;;;18.97;47.35
63115;BME280;49208;50.874;6.466;2023-05-01T13:24:39;100253.59;;;18.70;47.84
63115;BME280;49208;50.874;6.466;2023-05-01T13:27:09;100250.50;;;18.38;49.65
63115;BME280;49208;50.874;6.466;2023-05-01T13:29:35;100253.66;;;18.19;48.44
63115;BME280;49208;50.874;6.466;2023-05-01T13:32:05;100258.28;;;18.04;50.44
63115;BME280;49208;50.874;6.466;2023-05-01T13:34:34;100261.19;;;17.88;50.50
63115;BME280;49208;50.874;6.466;2023-05-01T13:37:01;100262.22;;;17.73;50.57
63115;BME280;49208;50.874;6.466;2023-05-01T13:39:26;100272.28;;;17.56;51.54
63115;BME280;49208;50.874;6.466;2023-05-01T13:41:52;100287.56;;;17.43;53.33
63115;BME280;49208;50.874;6.466;2023-05-01T13:44:19;100316.53;;;17.25;54.41
63115;BME280;49208;50.874;6.466;2023-05-01T13:46:45;100340.69;;;16.98;62.35
63115;BME280;49208;50.874;6.466;2023-05-01T13:49:11;100348.75;;;16.55;66.30
63115;BME280;49208;50.874;6.466;2023-05-01T13:51:42;100369.44;;;15.94;70.56
63115;BME280;49208;50.874;6.466;2023-05-01T13:54:09;100371.03;;;15.34;73.53
63115;BME280;49208;50.874;6.466;2023-05-01T13:56:37;100373.88;;;14.84;76.68
63115;BME280;49208;50.874;6.466;2023-05-01T13:59:06;100371.81;;;14.38;79.55
63115;BME280;49208;50.874;6.466;2023-05-01T14:01:40;100375.50;;;14.01;81.76
63115;BME280;49208;50.874;6.466;2023-05-01T14:04:10;100391.13;;;13.73;84.26
63115;BME280;49208;50.874;6.466;2023-05-01T14:06:45;100389.03;;;13.44;86.10
63115;BME280;49208;50.874;6.466;2023-05-01T14:09:14;100396.97;;;13.26;87.44
63115;BME280;49208;50.874;6.466;2023-05-01T14:11:46;100402.22;;;13.09;88.78
63115;BME280;49208;50.874;6.466;2023-05-01T14:14:15;100403.81;;;12.94;91.25
63115;BME280;49208;50.874;6.466;2023-05-01T14:16:41;100397.22;;;12.82;91.89
63115;BME280;49208;50.874;6.466;2023-05-01T14:19:13;100399.53;;;12.71;91.55
63115;BME280;49208;50.874;6.466;2023-05-01T14:21:40;100397.94;;;12.67;93.02
63115;BME280;49208;50.874;6.466;2023-05-01T14:24:07;100387.72;;;12.56;92.89
63115;BME280;49208;50.874;6.466;2023-05-01T14:26:33;100393.06;;;12.56;94.80
63115;BME280;49208;50.874;6.466;2023-05-01T14:28:58;100391.13;;;12.60;95.42
63115;BME280;49208;50.874;6.466;2023-05-01T14:31:28;100378.22;;;12.69;95.69
63115;BME280;49208;50.874;6.466;2023-05-01T14:33:56;100377.88;;;12.77;96.19
63115;BME280;49208;50.874;6.466;2023-05-01T14:36:22;100371.47;;;12.81;96.28
63115;BME280;49208;50.874;6.466;2023-05-01T14:38:48;100365.25;;;13.00;97.26
63115;BME280;49208;50.874;6.466;2023-05-01T14:41:18;100370.81;;;13.14;96.55
63115;BME280;49208;50.874;6.466;2023-05-01T14:43:46;100365.09;;;13.22;96.63
63115;BME280;49208;50.874;6.466;2023-05-01T14:46:14;100360.88;;;13.37;96.42
63115;BME280;49208;50.874;6.466;2023-05-01T14:48:40;100356.66;;;13.50;98.05
63115;BME280;49208;50.874;6.466;2023-05-01T14:51:17;100354.16;;;13.64;98.30
63115;BME280;49208;50.874;6.466;2023-05-01T14:53:43;100359.19;;;13.70;95.94
63115;BME280;49208;50.874;6.466;2023-05-01T14:56:09;100360.47;;;13.81;97.39
63115;BME280;49208;50.874;6.466;2023-05-01T14:58:34;100363.06;;;14.00;96.84
63115;BME280;49208;50.874;6.466;2023-05-01T15:01:00;100356.78;;;14.18;96.36
63115;BME280;49208;50.874;6.466;2023-05-01T15:03:26;100360.75;;;14.44;90.31
63115;BME280;49208;50.874;6.466;2023-05-01T15:05:52;100366.25;;;14.59;93.10
63115;BME280;49208;50.874;6.466;2023-05-01T15:08:17;100365.09;;;14.64;88.89
63115;BME280;49208;50.874;6.466;2023-05-01T15:10:42;100357.59;;;14.53;89.44
63115;BME280;49208;50.874;6.466;2023-05-01T15:13:09;100359.03;;;14.43;91.39
63115;BME280;49208;50.874;6.466;2023-05-01T15:15:34;100358.44;;;14.38;92.20
63115;BME280;49208;50.874;6.466;2023-05-01T15:18:00;100361.78;;;14.42;89.61
63115;BME280;49208;50.874;6.466;2023-05-01T15:20:26;100369.50;;;14.48;89.19
63115;BME280;49208;50.874;6.466;2023-05-01T15:22:52;100367.53;;;14.51;88.67
63115;BME280;49208;50.874;6.466;2023-05-01T15:25:17;100377.09;;;14.57;88.88
63115;BME280;49208;50.874;6.466;2023-05-01T15:27:42;100372.59;;;14.58;86.44
63115;BME280;49208;50.874;6.466;2023-05-01T15:30:08;100376.13;;;14.58;86.58
63115;BME280;49208;50.874;6.466;2023-05-01T15:32:35;100370.91;;;14.55;89.12
63115;BME280;49208;50.874;6.466;2023-05-01T15:35:01;100375.63;;;14.50;91.42
63115;BME280;49208;50.874;6.466;2023-05-01T15:37:26;100375.09;;;14.43;92.08
63115;BME280;49208;50.874;6.466;2023-05-01T15:39:52;100376.38;;;14.36;92.29
63115;BME280;49208;50.874;6.466;2023-05-01T15:42:18;100374.88;;;14.30;92.97
63115;BME280;49208;50.874;6.466;2023-05-01T15:44:43;100373.56;;;14.22;92.46
63115;BME280;49208;50.874;6.466;2023-05-01T15:47:08;100382.69;;;14.18;90.92
63115;BME280;49208;50.874;6.466;2023-05-01T15:49:34;100395.66;;;14.08;89.85
63115;BME280;49208;50.874;6.466;2023-05-01T15:52:00;100397.69;;;14.03;92.28
63115;BME280;49208;50.874;6.466;2023-05-01T15:54:25;100397.00;;;13.99;94.88
63115;BME280;49208;50.874;6.466;2023-05-01T15:56:52;100404.50;;;13.92;97.41
63115;BME280;49208;50.874;6.466;2023-05-01T15:59:17;100420.91;;;13.85;99.33
63115;BME280;49208;50.874;6.466;2023-05-01T16:01:42;100424.91;;;13.76;98.35
63115;BME280;49208;50.874;6.466;2023-05-01T16:04:08;100432.44;;;13.68;97.43
63115;BME280;49208;50.874;6.466;2023-05-01T16:06:33;100434.75;;;13.57;97.01
63115;BME280;49208;50.874;6.466;2023-05-01T16:08:59;100443.47;;;13.43;98.25
63115;BME280;49208;50.874;6.466;2023-05-01T16:11:24;100448.50;;;13.30;100.00
63115;BME280;49208;50.874;6.466;2023-05-01T16:13:51;100452.50;;;13.20;100.00
63115;BME280;49208;50.874;6.466;2023-05-01T16:16:18;100446.16;;;13.03;100.00
63115;BME280;49208;50.874;6.466;2023-05-01T16:18:51;100450.38;;;12.88;100.00
63115;BME280;49208;50.874;6.466;2023-05-01T16:21:18;100455.75;;;12.68;100.00
63115;BME280;49208;50.874;6.466;2023-05-01T16:23:43;100467.91;;;12.54;100.00
63115;BME280;49208;50.874;6.466;2023-05-01T16:26:09;100454.88;;;12.47;99.44
63115;BME280;49208;50.874;6.466;2023-05-01T16:28:35;100445.47;;;12.38;99.25
63115;BME280;49208;50.874;6.466;2023-05-01T16:31:01;100444.00;;;12.31;99.62
63115;BME280;49208;50.874;6.466;2023-05-01T16:33:26;100444.97;;;12.28;100.00
63115;BME280;49208;50.874;6.466;2023-05-01T16:35:52;100440.59;;;12.27;100.00
63115;BME280;49208;50.874;6.466;2023-05-01T16:38:18;100441.50;;;12.26;100.00
63115;BME280;49208;50.874;6.466;2023-05-01T16:40:45;100446.84;;;12.26;100.00
63115;BME280;49208;50.874;6.466;2023-05-01T16:43:11;100446.72;;;12.29;100.00
63115;BME280;49208;50.874;6.466;2023-05-01T16:45:37;100444.06;;;12.29;100.00
63115;BME280;49208;50.874;6.466;2023-05-01T16:48:03;100452.00;;;12.31;100.00
63115;BME280;49208;50.874;6.466;2023-05-01T16:50:29;100460.88;;;12.31;100.00
63115;BME280;49208;50.874;6.466;2023-05-01T16:52:54;100465.34;;;12.31;100.00
63115;BME280;49208;50.874;6.466;2023-05-01T16:55:21;100476.94;;;12.30;100.00
63115;BME280;49208;50.874;6.466;2023-05-01T16:57:46;100462.69;;;12.31;100.00
63115;BME280;49208;50.874;6.466;2023-05-01T17:00:13;100461.69;;;12.33;100.00
63115;BME280;49208;50.874;6.466;2023-05-01T17:02:38;100468.69;;;12.36;100.00
63115;BME280;49208;50.874;6.466;2023-05-01T17:05:04;100464.16;;;12.38;100.00
63115;BME280;49208;50.874;6.466;2023-05-01T17:07:30;100457.81;;;12.41;100.00
63115;BME280;49208;50.874;6.466;2023-05-01T17:09:55;100457.81;;;12.41;100.00
63115;BME280;49208;50.874;6.466;2023-05-01T17:12:21;100470.28;;;12.40;100.00
63115;BME280;49208;50.874;6.466;2023-05-01T17:14:46;100478.34;;;12.39;100.00
63115;BME280;49208;50.874;6.466;2023-05-01T17:17:12;100486.56;;;12.34;100.00
63115;BME280;49208;50.874;6.466;2023-05-01T17:19:37;100498.19;;;12.33;100.00
63115;BME280;49208;50.874;6.466;2023-05-01T17:22:03;100493.81;;;12.30;100.00
63115;BME280;49208;50.874;6.466;2023-05-01T17:24:29;100500.16;;;12.28;100.00
63115;BME280;49208;50.874;6.466;2023-05-01T17:26:54;100494.13;;;12.24;100.00
63115;BME280;49208;50.874;6.466;2023-05-01T17:29:21;100490.81;;;12.18;100.00
63115;BME280;49208;50.874;6.466;2023-05-01T17:31:47;100486.47;;;12.15;100.00
63115;BME280;49208;50.874;6.466;2023-05-01T17:34:12;100480.47;;;12.10;100.00
63115;BME280;49208;50.874;6.466;2023-05-01T17:36:37;100472.88;;;11.99;100.00
63115;BME280;49208;50.874;6.466;2023-05-01T17:39:03;100471.53;;;11.89;100.00
63115;BME280;49208;50.874;6.466;2023-05-01T17:41:29;100469.22;;;11.80;100.00
63115;BME280;49208;50.874;6.466;2023-05-01T17:43:54;100472.13;;;11.73;100.00
63115;BME280;49208;50.874;6.466;2023-05-01T17:46:20;100469.63;;;11.69;100.00
63115;BME280;49208;50.874;6.466;2023-05-01T17:48:45;100463.56;;;11.65;100.00
63115;BME280;49208;50.874;6.466;2023-05-01T17:51:12;100464.66;;;11.60;100.00
63115;BME280;49208;50.874;6.466;2023-05-01T17:53:38;100465.59;;;11.59;100.00
63115;BME280;49208;50.874;6.466;2023-05-01T17:56:03;100469.25;;;11.56;100.00
63115;BME280;49208;50.874;6.466;2023-05-01T17:58:29;100468.50;;;11.52;100.00
63115;BME280;49208;50.874;6.466;2023-05-01T18:00:54;100468.59;;;11.49;100.00
63115;BME280;49208;50.874;6.466;2023-05-01T18:03:19;100467.75;;;11.49;100.00
63115;BME280;49208;50.874;6.466;2023-05-01T18:05:45;100480.09;;;11.51;100.00
63115;BME280;49208;50.874;6.466;2023-05-01T18:08:10;100477.41;;;11.51;100.00
63115;BME280;49208;50.874;6.466;2023-05-01T18:10:36;100479.16;;;11.52;100.00
63115;BME280;49208;50.874;6.466;2023-05-01T18:13:01;100479.16;;;11.52;100.00
63115;BME280;49208;50.874;6.466;2023-05-01T18:15:26;100464.91;;;11.53;100.00
63115;BME280;49208;50.874;6.466;2023-05-01T18:17:52;100473.84;;;11.52;100.00
63115;BME280;49208;50.874;6.466;2023-05-01T18:20:18;100463.19;;;11.52;100.00
63115;BME280;49208;50.874;6.466;2023-05-01T18:22:43;100464.97;;;11.52;100.00
63115;BME280;49208;50.874;6.466;2023-05-01T18:25:09;100464.19;;;11.50;100.00
63115;BME280;49208;50.874;6.466;2023-05-01T18:27:34;100474.03;;;11.48;100.00
63115;BME280;49208;50.874;6.466;2023-05-01T18:30:02;100479.41;;;11.46;100.00
63115;BME280;49208;50.874;6.466;2023-05-01T18:32:27;100481.25;;;11.44;100.00
63115;BME280;49208;50.874;6.466;2023-05-01T18:34:53;100485.78;;;11.42;100.00
63115;BME280;49208;50.874;6.466;2023-05-01T18:37:19;100483.31;;;11.38;100.00
63115;BME280;49208;50.874;6.466;2023-05-01T18:39:44;100488.81;;;11.33;100.00
63115;BME280;49208;50.874;6.466;2023-05-01T18:42:10;100489.06;;;11.27;100.00
63115;BME280;49208;50.874;6.466;2023-05-01T18:44:36;100497.19;;;11.22;100.00
63115;BME280;49208;50.874;6.466;2023-05-01T18:47:01;100500.22;;;11.13;100.00
63115;BME280;49208;50.874;6.466;2023-05-01T18:49:26;100507.66;;;11.03;100.00
63115;BME280;49208;50.874;6.466;2023-05-01T18:51:52;100509.81;;;10.94;100.00
63115;BME280;49208;50.874;6.466;2023-05-01T18:54:17;100510.91;;;10.88;100.00
63115;BME280;49208;50.874;6.466;2023-05-01T18:56:43;100514.63;;;10.82;100.00
63115;BME280;49208;50.874;6.466;2023-05-01T18:59:08;100519.31;;;10.76;100.00
63115;BME280;49208;50.874;6.466;2023-05-01T19:01:33;100518.75;;;10.66;100.00
63115;BME280;49208;50.874;6.466;2023-05-01T19:04:00;100521.53;;;10.63;100.00